Ufimets — UFNC — position and weather

sailwx.info

Track history (hours):
 
Tides and Currents Weather Stations Pressure Air Temp Water Temp Dewpoint Dewpoint Depression Visibility Wind Speed Wind Dir Waves Ship Positions

Ufimets

Last reported at 2016-Sep-28 03:31 UTC. Time now 2016-Sep-29 22:11 UTC.
Position N 59°58' E 029°48'.

Length 82 m; draft 1.8 m.

Type: Ship. MMSI: 27343260.

Date/timePositionNaut miles runAvg speedWind from/ knotsBaromVisibWave heightAir tempDewpointWater temp
2016-Sep-28 03:31N 59°58' E 029°48'3 2.9
2016-Sep-28 02:33N 59°57' E 029°53'7 7.0
2016-Sep-28 01:33N 59°54' E 030°06'9 4.6
2016-Sep-27 23:33N 59°55' E 030°24'0 0.0
2016-Sep-27 19:33N 59°55' E 030°24'  
2016-Sep-22 00:29N 59°52' E 030°29'4 4.1
2016-Sep-21 23:34N 59°55' E 030°24'4 3.6
2016-Sep-21 22:34N 59°56' E 030°18'0 0.1
2016-Sep-21 19:33N 59°56' E 030°17'0 0.0
2016-Sep-21 16:33N 59°56' E 030°17'0 0.0
2016-Sep-21 09:33N 59°56' E 030°17'0 0.0
2016-Sep-21 08:33N 59°56' E 030°17'2 0.7
2016-Sep-21 05:33N 59°55' E 030°14'14 7.2
2016-Sep-21 03:33N 59°59' E 029°46'  
Track history (hours):
 
Tides and Currents Weather Stations Pressure Air Temp Water Temp Dewpoint Dewpoint Depression Visibility Wind Speed Wind Dir Waves Ship Positions

Ufimets

Last reported at 2016-Sep-28 03:31 UTC. Time now 2016-Sep-29 22:11 UTC.
Position N 59°58' E 029°48'.

Length 82 m; draft 1.8 m.

Type: Ship. MMSI: 27343260.

Date/timePositionNaut miles runAvg speedWind from/ knotsBaromVisibWave heightAir tempDewpointWater temp
2016-Sep-28 03:31N 59°58' E 029°48'3 2.9
2016-Sep-28 02:33N 59°57' E 029°53'7 7.0
2016-Sep-28 01:33N 59°54' E 030°06'9 4.6
2016-Sep-27 23:33N 59°55' E 030°24'0 0.0
2016-Sep-27 19:33N 59°55' E 030°24'  
2016-Sep-22 00:29N 59°52' E 030°29'4 4.1
2016-Sep-21 23:34N 59°55' E 030°24'4 3.6
2016-Sep-21 22:34N 59°56' E 030°18'0 0.1
2016-Sep-21 19:33N 59°56' E 030°17'0 0.0
2016-Sep-21 16:33N 59°56' E 030°17'0 0.0
2016-Sep-21 09:33N 59°56' E 030°17'0 0.0
2016-Sep-21 08:33N 59°56' E 030°17'2 0.7
2016-Sep-21 05:33N 59°55' E 030°14'14 7.2
2016-Sep-21 03:33N 59°59' E 029°46'  

Dump ship's entire track history